Meath Environmental Platform

Observations for Trim Market St

Time AQI Temp °C Hum % Pres Pa CO μg/m³ H₂S μg/m³ NO μg/m³ NO₂ μg/m³ O₃ μg/m³ SO₂ μg/m³ PM1 μg/m³ PM2.5 μg/m³ PM10 μg/m³
Sunday 12 July 2026
15:34 1 34.3 32 66,321 0 0 0 0.39 35.32 0 2.14 4.85 5.33
15:32 1 34.4 32 66,309 0 0 0 0 35.15 0 2.85 5.4 5.94
15:31 1 34.4 32 66,317 0 0 0 0.57 31.12 0 3.56 7.01 7.52
15:30 1 34.4 32 66,325 0 0 0 0.38 39.33 0 2.85 6.48 7.52
15:29 1 34.4 32 66,333 0 0 0 0.38 35.04 0 2.14 6.48 6.67
15:28 1 34.4 32 66,345 0 0 0 0 36.6 0 2.85 5.94 6.67
15:27 1 34.4 32 66,335 0 0 0 0 31.06 0 3.56 6.48 8.38
15:26 1 34.4 32 66,349 0 0 0 0 28.1 0 2.85 6.47 6.67
15:25 1 34.4 32 66,337 0 0 0 0 39.31 0 2.14 5.38 5.91
15:24 1 34.4 32 66,353 0 0 0 0.43 39.67 0 3.56 7.53 8.38
15:16 1 34.3 32 66,305 0 0 0 0 35.19 0 2.85 5.93 6.52
15:14 1 34.3 32 66,315 0 0 0 1.79 42.24 0 3.56 7.01 7.52
15:13 1 34.3 32 66,325 0 0 0 0 29.56 0 2.85 6.48 7.52
15:12 1 34.3 32 66,309 0 0 0 0.69 37.6 0 2.85 5.39 5.93
15:04 1 34.5 32 66,321 0 0 0 0 36.02 0 1.43 5.41 5.95
15:03 1 34.5 32 66,333 0 0 0 0 38.6 0 2.85 5.95 7.52
15:02 1 34.5 31 66,317 0 0 0 0 36.64 0 2.14 5.41 5.96
15:01 1 34.6 32 66,325 0 0 0 0 28.35 0 4.28 7.03 8.38
15:00 1 34.6 32 66,339 0 0 0 0 33.61 0 2.85 5.94 6.53
14:59 1 34.6 32 66,327 0 0 0 0 36.2 0 2.85 5.93 8.38